createdAt,value
2023-04-02T00:00:35.840Z,74.40
2023-04-02T00:03:02.366Z,74.70
2023-04-02T00:05:37.866Z,75.26
2023-04-02T00:08:18.330Z,75.77
2023-04-02T00:10:48.855Z,76.62
2023-04-02T00:13:22.021Z,76.06
2023-04-02T00:15:50.410Z,75.69
2023-04-02T00:18:18.990Z,75.96
2023-04-02T00:20:55.716Z,75.59
2023-04-02T00:23:22.813Z,74.09
2023-04-02T00:25:49.347Z,74.30
2023-04-02T00:28:19.567Z,73.70
2023-04-02T00:31:06.310Z,73.44
2023-04-02T00:33:33.223Z,73.06
2023-04-02T00:35:59.757Z,72.22
2023-04-02T00:38:35.637Z,72.57
2023-04-02T00:41:04.350Z,72.68
2023-04-02T00:43:36.117Z,73.04
2023-04-02T00:46:05.044Z,73.46
2023-04-02T00:48:40.337Z,73.61
2023-04-02T00:51:18.010Z,73.83
2023-04-02T00:53:46.906Z,74.78
2023-04-02T00:56:36.707Z,76.20
2023-04-02T00:59:04.090Z,75.64
2023-04-02T01:01:36.429Z,75.03
2023-04-02T01:04:05.097Z,75.00
2023-04-02T01:06:38.809Z,74.40
2023-04-02T01:09:36.364Z,75.03
2023-04-02T01:12:14.955Z,74.80
2023-04-02T01:15:14.558Z,75.73
2023-04-02T01:17:53.470Z,76.63
2023-04-02T01:20:56.790Z,76.13
2023-04-02T01:23:48.338Z,75.70
2023-04-02T01:26:46.861Z,74.81
2023-04-02T01:29:16.236Z,74.45
2023-04-02T01:31:44.725Z,73.72
2023-04-02T01:34:14.671Z,73.20
2023-04-02T01:37:00.181Z,73.50
2023-04-02T01:39:41.700Z,74.93
2023-04-02T01:42:11.163Z,76.77
2023-04-02T01:44:44.398Z,78.96
2023-04-02T01:47:13.706Z,78.42
2023-04-02T01:50:03.808Z,78.88
2023-04-02T01:52:37.080Z,78.53
2023-04-02T01:55:03.922Z,77.85
2023-04-02T01:57:31.015Z,76.51
2023-04-02T01:59:59.794Z,75.57
2023-04-02T02:02:26.462Z,74.87
2023-04-02T02:04:53.238Z,74.35
2023-04-02T02:07:20.702Z,73.84
2023-04-02T02:09:48.230Z,74.07
2023-04-02T02:12:15.744Z,74.54
2023-04-02T02:14:47.755Z,74.94
2023-04-02T02:17:16.896Z,76.13
2023-04-02T02:19:52.166Z,76.58
2023-04-02T02:22:38.266Z,76.73
2023-04-02T02:25:07.604Z,76.38
2023-04-02T02:27:48.259Z,75.72
2023-04-02T02:30:22.064Z,75.05
2023-04-02T02:33:05.473Z,77.12
2023-04-02T02:35:41.217Z,77.14
2023-04-02T02:38:26.434Z,77.35
2023-04-02T02:40:56.735Z,77.30
2023-04-02T02:43:23.240Z,77.04
2023-04-02T02:45:50.905Z,77.26
2023-04-02T02:48:21.548Z,77.47
2023-04-02T02:50:48.202Z,78.26
2023-04-02T02:53:24.804Z,77.58
2023-04-02T02:55:54.504Z,76.79
2023-04-02T02:58:25.273Z,77.44
2023-04-02T03:00:51.995Z,77.06
2023-04-02T03:03:24.698Z,76.51
2023-04-02T03:06:03.295Z,75.45
2023-04-02T03:08:40.580Z,75.55
2023-04-02T03:11:12.069Z,74.92
2023-04-02T03:13:39.796Z,73.75
2023-04-02T03:16:22.105Z,73.67
2023-04-02T03:19:20.700Z,73.14
2023-04-02T03:21:52.482Z,74.67
2023-04-02T03:24:27.153Z,75.47
2023-04-02T03:27:03.609Z,74.92
2023-04-02T03:29:32.949Z,75.33
2023-04-02T03:32:29.544Z,74.45
2023-04-02T03:35:15.139Z,74.84
2023-04-02T03:37:48.401Z,74.54
2023-04-02T03:40:22.433Z,74.32
2023-04-02T03:42:51.886Z,74.00
2023-04-02T03:45:23.067Z,74.57
2023-04-02T03:47:53.489Z,74.78
2023-04-02T03:50:30.717Z,73.99
2023-04-02T03:52:58.730Z,73.97
2023-04-02T03:55:27.354Z,74.72
2023-04-02T03:58:17.173Z,74.49
2023-04-02T04:00:57.809Z,75.68
2023-04-02T04:03:37.338Z,75.20
2023-04-02T04:06:10.557Z,75.61
2023-04-02T04:08:46.936Z,75.00
2023-04-02T04:11:17.180Z,74.76
2023-04-02T04:13:51.200Z,74.59
2023-04-02T04:16:21.970Z,73.81
2023-04-02T04:18:56.058Z,72.29
2023-04-02T04:21:27.298Z,72.38
2023-04-02T04:23:53.820Z,73.15
2023-04-02T04:26:24.355Z,73.94
2023-04-02T04:28:59.864Z,74.35
2023-04-02T04:31:47.479Z,73.58
2023-04-02T04:34:20.332Z,73.81
2023-04-02T04:36:53.597Z,73.89
2023-04-02T04:39:41.754Z,73.98
2023-04-02T04:42:13.918Z,74.38
2023-04-02T04:44:45.291Z,74.65
2023-04-02T04:47:20.922Z,76.19
2023-04-02T04:49:52.583Z,77.89
2023-04-02T04:52:28.639Z,77.26
2023-04-02T04:54:55.302Z,77.46
2023-04-02T04:57:31.081Z,76.78
2023-04-02T05:00:04.094Z,76.22
2023-04-02T05:02:35.550Z,74.69
2023-04-02T05:05:02.746Z,74.46
2023-04-02T05:07:32.182Z,74.11
2023-04-02T05:10:13.217Z,74.61
2023-04-02T05:12:48.247Z,73.76
2023-04-02T05:15:41.552Z,74.66
2023-04-02T05:18:16.338Z,74.76
2023-04-02T05:20:51.379Z,75.05
2023-04-02T05:23:21.919Z,75.52
2023-04-02T05:26:13.443Z,75.58
2023-04-02T05:28:45.032Z,75.19
2023-04-02T05:31:20.399Z,74.11
2023-04-02T05:33:48.795Z,74.13
2023-04-02T05:36:27.450Z,74.96
2023-04-02T05:38:54.178Z,74.28
2023-04-02T05:41:26.662Z,74.75
2023-04-02T05:44:06.601Z,74.68
2023-04-02T05:46:54.707Z,74.53
2023-04-02T05:49:39.067Z,74.03
2023-04-02T05:52:07.985Z,73.35
2023-04-02T05:54:39.853Z,73.14
2023-04-02T05:57:13.259Z,73.50
2023-04-02T05:59:43.590Z,74.23
2023-04-02T06:02:23.079Z,74.74
2023-04-02T06:04:57.758Z,75.27
2023-04-02T06:07:29.642Z,75.36
2023-04-02T06:10:03.161Z,75.01
2023-04-02T06:12:53.399Z,74.82
2023-04-02T06:15:21.911Z,74.21
2023-04-02T06:17:53.343Z,73.95
2023-04-02T06:20:20.887Z,73.37
2023-04-02T06:22:50.091Z,72.09
2023-04-02T06:25:24.320Z,71.75
2023-04-02T06:27:51.838Z,70.30
2023-04-02T06:30:25.273Z,70.65
2023-04-02T06:32:51.888Z,69.63
2023-04-02T06:35:18.524Z,69.47
2023-04-02T06:37:48.154Z,69.07
2023-04-02T06:40:28.616Z,68.50
2023-04-02T06:42:56.485Z,67.84
2023-04-02T06:45:28.542Z,67.42
2023-04-02T06:47:57.411Z,66.91
2023-04-02T06:50:27.976Z,67.52
2023-04-02T06:53:00.161Z,66.12
2023-04-02T06:55:50.918Z,66.17
2023-04-02T06:58:17.967Z,66.27
2023-04-02T07:00:46.811Z,66.07
2023-04-02T07:03:28.109Z,65.47
2023-04-02T07:05:55.042Z,65.53
2023-04-02T07:08:21.945Z,66.21
2023-04-02T07:10:48.558Z,67.00
2023-04-02T07:13:24.831Z,66.77
2023-04-02T07:15:56.206Z,66.75
2023-04-02T07:18:28.995Z,67.03
2023-04-02T07:20:59.110Z,67.31
2023-04-02T07:23:26.203Z,67.31
2023-04-02T07:25:54.477Z,68.19
2023-04-02T07:28:22.900Z,67.67
2023-04-02T07:30:53.061Z,67.47
2023-04-02T07:33:27.233Z,68.06
2023-04-02T07:35:55.044Z,68.56
2023-04-02T07:38:21.613Z,69.12
2023-04-02T07:40:48.402Z,69.01
2023-04-02T07:43:16.496Z,69.51
2023-04-02T07:45:43.137Z,70.25
2023-04-02T07:48:11.618Z,69.32
2023-04-02T07:50:38.125Z,69.63
2023-04-02T07:53:05.028Z,69.21
2023-04-02T07:55:31.525Z,68.36
2023-04-02T07:57:59.147Z,68.37
2023-04-02T08:00:27.048Z,66.02
2023-04-02T08:02:53.923Z,64.21
2023-04-02T08:05:20.599Z,62.37
2023-04-02T08:07:54.876Z,60.78
2023-04-02T08:10:21.536Z,59.41
2023-04-02T08:12:48.099Z,57.84
2023-04-02T08:15:15.498Z,57.44
2023-04-02T08:17:42.721Z,58.90
2023-04-02T08:20:21.213Z,59.21
2023-04-02T08:22:48.712Z,58.93
2023-04-02T08:25:15.885Z,59.48
2023-04-02T08:27:42.501Z,59.98
2023-04-02T08:30:11.235Z,59.64
2023-04-02T08:32:37.856Z,60.13
2023-04-02T08:35:04.732Z,60.01
2023-04-02T08:37:31.246Z,60.90
2023-04-02T08:39:57.754Z,60.01
2023-04-02T08:42:41.362Z,60.92
2023-04-02T08:45:42.073Z,60.27
2023-04-02T08:48:10.624Z,60.81
2023-04-02T08:50:42.186Z,58.70
2023-04-02T08:53:20.134Z,55.39
2023-04-02T08:56:14.500Z,56.16
2023-04-02T08:58:49.083Z,53.09
2023-04-02T09:01:47.714Z,54.16
2023-04-02T09:04:21.274Z,53.09
2023-04-02T09:06:48.376Z,49.77
2023-04-02T09:09:15.688Z,48.79
2023-04-02T09:11:58.766Z,52.29
2023-04-02T09:14:43.519Z,52.89
2023-04-02T09:17:18.016Z,51.25
2023-04-02T09:19:52.532Z,50.84
2023-04-02T09:22:22.005Z,51.63
2023-04-02T09:24:59.629Z,51.99
2023-04-02T09:27:28.982Z,53.12
2023-04-02T09:29:58.326Z,53.35
2023-04-02T09:32:37.364Z,53.35
2023-04-02T09:35:22.446Z,53.49
2023-04-02T09:38:07.774Z,55.55
2023-04-02T09:41:03.375Z,56.10
2023-04-02T09:43:32.488Z,56.02
2023-04-02T09:46:20.811Z,56.99
2023-04-02T09:48:53.901Z,56.43
2023-04-02T09:51:24.540Z,55.51
2023-04-02T09:54:08.579Z,56.38
2023-04-02T09:56:36.826Z,54.76
2023-04-02T09:59:13.799Z,55.64
2023-04-02T10:01:42.504Z,55.69
2023-04-02T10:04:34.114Z,53.99
2023-04-02T10:07:00.660Z,53.57
2023-04-02T10:09:35.209Z,54.72
2023-04-02T10:12:03.499Z,53.63
2023-04-02T10:14:34.418Z,54.61
2023-04-02T10:17:21.143Z,55.19
2023-04-02T10:19:53.391Z,52.66
2023-04-02T10:22:21.768Z,52.97
2023-04-02T10:24:48.998Z,53.13
2023-04-02T10:27:38.605Z,53.09
2023-04-02T10:30:09.408Z,53.52
2023-04-02T10:33:01.681Z,54.21
2023-04-02T10:35:54.919Z,54.27
2023-04-02T10:38:29.845Z,54.22
2023-04-02T10:40:59.812Z,54.87
2023-04-02T10:43:41.629Z,57.37
2023-04-02T10:46:30.098Z,57.51
2023-04-02T10:49:08.970Z,60.23
2023-04-02T10:51:43.058Z,58.10
2023-04-02T10:54:33.168Z,58.54
2023-04-02T10:57:14.625Z,57.79
2023-04-02T10:59:52.093Z,59.59
2023-04-02T11:02:51.284Z,59.17
2023-04-02T11:05:23.033Z,59.54
2023-04-02T11:07:59.982Z,57.86
2023-04-02T11:10:30.126Z,59.00
2023-04-02T11:12:57.998Z,59.09
2023-04-02T11:15:28.804Z,59.08
2023-04-02T11:17:55.436Z,58.96
2023-04-02T11:20:49.892Z,59.12
2023-04-02T11:23:20.565Z,59.17
2023-04-02T11:25:47.790Z,58.26
2023-04-02T11:28:27.586Z,57.92
2023-04-02T11:30:54.820Z,56.59
2023-04-02T11:33:46.127Z,56.27
2023-04-02T11:36:50.750Z,57.41
2023-04-02T11:39:52.045Z,55.80
2023-04-02T11:42:18.571Z,58.13
2023-04-02T11:44:45.455Z,57.98
2023-04-02T11:47:18.757Z,59.42
2023-04-02T11:49:59.684Z,60.80
2023-04-02T11:52:27.724Z,59.66
2023-04-02T11:55:01.372Z,59.84
2023-04-02T11:58:05.609Z,58.72
2023-04-02T12:00:37.572Z,58.97
2023-04-02T12:03:25.842Z,56.91
2023-04-02T12:06:04.165Z,59.36
2023-04-02T12:08:50.836Z,58.83
2023-04-02T12:11:38.495Z,59.66
2023-04-02T12:14:30.589Z,60.01
2023-04-02T12:16:58.074Z,59.75
2023-04-02T12:19:25.034Z,61.21
2023-04-02T12:21:52.457Z,62.59
2023-04-02T12:24:23.907Z,60.92
2023-04-02T12:27:10.930Z,60.95
2023-04-02T12:29:37.467Z,61.65
2023-04-02T12:32:04.046Z,59.93
2023-04-02T12:34:30.790Z,59.39
2023-04-02T12:37:02.218Z,60.16
2023-04-02T12:39:32.748Z,59.70
2023-04-02T12:41:59.439Z,58.61
2023-04-02T12:44:28.191Z,55.74
2023-04-02T12:46:55.607Z,55.10
2023-04-02T12:49:41.487Z,56.64
2023-04-02T12:52:34.453Z,55.64
2023-04-02T12:55:02.634Z,57.37
2023-04-02T12:57:29.128Z,57.03
2023-04-02T13:00:01.756Z,56.73
2023-04-02T13:02:33.526Z,56.93
2023-04-02T13:05:01.712Z,55.95
2023-04-02T13:07:32.687Z,57.37
2023-04-02T13:10:22.645Z,56.75
2023-04-02T13:13:03.726Z,55.72
2023-04-02T13:15:32.617Z,53.82
2023-04-02T13:18:21.406Z,53.16
2023-04-02T13:21:01.748Z,52.27
2023-04-02T13:23:31.094Z,52.94
2023-04-02T13:25:58.729Z,54.69
2023-04-02T13:28:25.515Z,54.24
2023-04-02T13:30:52.122Z,55.46
2023-04-02T13:33:18.663Z,56.59
2023-04-02T13:35:45.247Z,54.59
2023-04-02T13:38:11.752Z,56.03
2023-04-02T13:40:38.407Z,55.81
2023-04-02T13:43:10.475Z,54.65
2023-04-02T13:45:38.476Z,54.15
2023-04-02T13:48:05.923Z,55.53
2023-04-02T13:50:34.754Z,53.89
2023-04-02T13:53:09.680Z,54.59
2023-04-02T13:55:40.426Z,53.20
2023-04-02T13:58:06.945Z,54.72
2023-04-02T14:00:35.578Z,53.10
2023-04-02T14:03:12.408Z,52.98
2023-04-02T14:05:48.079Z,53.27
2023-04-02T14:08:23.602Z,54.14
2023-04-02T14:10:53.851Z,52.66
2023-04-02T14:13:23.382Z,52.55
2023-04-02T14:16:11.205Z,53.57
2023-04-02T14:18:53.455Z,53.39
2023-04-02T14:21:26.067Z,52.56
2023-04-02T14:24:04.807Z,54.11
2023-04-02T14:26:53.050Z,52.96
2023-04-02T14:29:19.424Z,53.92
2023-04-02T14:32:02.972Z,54.56
2023-04-02T14:34:41.903Z,55.33
2023-04-02T14:37:33.790Z,55.89
2023-04-02T14:40:13.488Z,55.98
2023-04-02T14:42:50.981Z,55.71
2023-04-02T14:45:42.498Z,55.61
2023-04-02T14:48:46.348Z,55.57
2023-04-02T14:51:34.051Z,54.29
2023-04-02T14:54:19.360Z,55.21
2023-04-02T14:57:10.394Z,54.09
2023-04-02T14:59:49.253Z,53.27
2023-04-02T15:02:40.857Z,54.52
2023-04-02T15:05:42.764Z,56.09
2023-04-02T15:08:36.824Z,52.40
2023-04-02T15:11:34.046Z,55.15
2023-04-02T15:14:06.362Z,56.25
2023-04-02T15:16:33.478Z,56.14
2023-04-02T15:19:00.689Z,56.29
2023-04-02T15:21:59.020Z,57.47
2023-04-02T15:24:35.523Z,57.55
2023-04-02T15:27:48.415Z,58.36
2023-04-02T15:30:20.650Z,57.29
2023-04-02T15:32:50.273Z,57.46
2023-04-02T15:35:47.771Z,58.92
2023-04-02T15:38:31.666Z,57.83
2023-04-02T15:41:29.795Z,56.26
2023-04-02T15:44:25.836Z,55.28
2023-04-02T15:47:43.575Z,57.06
2023-04-02T15:50:44.096Z,58.56
2023-04-02T15:53:29.880Z,58.48
2023-04-02T15:56:08.725Z,59.82
2023-04-02T15:58:44.368Z,58.19
2023-04-02T16:01:39.775Z,57.49
2023-04-02T16:04:54.874Z,58.60
2023-04-02T16:07:47.513Z,58.92
2023-04-02T16:13:43.811Z,58.06
2023-04-02T16:16:25.089Z,56.90
2023-04-02T16:19:30.669Z,57.00
2023-04-02T16:23:11.789Z,57.25
2023-04-02T16:25:20.414Z,56.71
2023-04-02T16:28:24.833Z,56.63
2023-04-02T16:31:06.947Z,57.47
2023-04-02T16:33:43.706Z,58.29
2023-04-02T16:36:32.218Z,58.62
2023-04-02T16:39:03.981Z,57.90
2023-04-02T16:42:00.033Z,59.80
2023-04-02T16:44:34.929Z,58.96
2023-04-02T16:47:05.624Z,59.34
2023-04-02T16:49:47.299Z,59.69
2023-04-02T16:52:27.472Z,60.25
2023-04-02T16:54:53.856Z,60.62
2023-04-02T16:57:55.656Z,60.85
2023-04-02T17:00:32.508Z,59.77
2023-04-02T17:03:17.633Z,60.95
2023-04-02T17:05:55.709Z,60.47
2023-04-02T17:08:36.665Z,60.09
2023-04-02T17:11:15.019Z,60.33
2023-04-02T17:13:53.042Z,60.65
2023-04-02T17:16:37.245Z,61.58
2023-04-02T17:19:09.679Z,60.81
2023-04-02T17:21:36.513Z,63.32
2023-04-02T17:24:15.078Z,64.09
2023-04-02T17:26:42.020Z,63.88
2023-04-02T17:29:09.793Z,65.08
2023-04-02T17:31:37.251Z,64.39
2023-04-02T17:34:14.549Z,64.49
2023-04-02T17:36:46.910Z,65.22
2023-04-02T17:39:49.056Z,63.43
2023-04-02T17:42:35.935Z,64.20
2023-04-02T17:45:04.929Z,64.42
2023-04-02T17:47:46.552Z,64.88
2023-04-02T17:50:41.127Z,63.59
2023-04-02T17:53:11.667Z,63.51
2023-04-02T17:55:56.925Z,63.53
2023-04-02T17:58:43.755Z,63.41
2023-04-02T18:01:22.083Z,63.83
2023-04-02T18:03:48.510Z,63.14
2023-04-02T18:06:26.975Z,64.15
2023-04-02T18:09:14.509Z,64.84
2023-04-02T18:12:02.822Z,65.55
2023-04-02T18:14:48.084Z,66.07
2023-04-02T18:17:26.926Z,66.35
2023-04-02T18:20:27.864Z,64.81
2023-04-02T18:23:28.330Z,64.93
2023-04-02T18:26:17.028Z,65.85
2023-04-02T18:29:05.900Z,65.71
2023-04-02T18:31:58.742Z,65.46
2023-04-02T18:34:37.343Z,64.91
2023-04-02T18:37:19.960Z,65.59
2023-04-02T18:40:21.895Z,65.62
2023-04-02T18:42:54.546Z,65.25
2023-04-02T18:45:52.208Z,65.80
2023-04-02T18:48:39.446Z,65.79
2023-04-02T18:51:14.199Z,65.37
2023-04-02T18:53:41.101Z,65.97
2023-04-02T18:56:12.072Z,66.44
2023-04-02T18:58:47.822Z,65.98
2023-04-02T19:01:17.156Z,66.21
2023-04-02T19:03:51.529Z,65.44
2023-04-02T19:06:24.118Z,65.23
2023-04-02T19:08:59.735Z,65.13
2023-04-02T19:11:26.952Z,64.82
2023-04-02T19:13:53.432Z,64.75
2023-04-02T19:16:37.092Z,64.49
2023-04-02T19:19:30.524Z,64.29
2023-04-02T19:22:19.350Z,64.78
2023-04-02T19:25:02.869Z,65.46
2023-04-02T19:28:00.163Z,66.51
2023-04-02T19:30:38.443Z,66.67
2023-04-02T19:33:23.195Z,66.77
2023-04-02T19:36:14.463Z,67.21
2023-04-02T19:38:59.144Z,67.19
2023-04-02T19:41:34.924Z,67.29
2023-04-02T19:44:09.778Z,67.90
2023-04-02T19:46:38.050Z,69.00
2023-04-02T19:49:10.050Z,68.52
2023-04-02T19:51:36.534Z,67.97
2023-04-02T19:54:03.179Z,68.04
2023-04-02T19:56:29.790Z,67.85
2023-04-02T19:58:56.816Z,68.26
2023-04-02T20:01:24.849Z,67.96
2023-04-02T20:03:53.929Z,67.15
2023-04-02T20:06:20.475Z,67.37
2023-04-02T20:08:46.985Z,66.92
2023-04-02T20:11:13.494Z,66.70
2023-04-02T20:13:39.964Z,66.40
2023-04-02T20:16:06.558Z,66.77
2023-04-02T20:18:33.660Z,67.35
2023-04-02T20:21:04.775Z,66.69
2023-04-02T20:23:31.272Z,66.97
2023-04-02T20:25:57.800Z,67.06
2023-04-02T20:28:25.505Z,67.09
2023-04-02T20:30:52.652Z,68.01
2023-04-02T20:33:22.425Z,68.13
2023-04-02T20:35:50.058Z,69.93
2023-04-02T20:38:17.078Z,70.11
2023-04-02T20:40:44.194Z,69.45
2023-04-02T20:43:11.002Z,69.15
2023-04-02T20:45:37.797Z,68.31
2023-04-02T20:48:04.545Z,67.97
2023-04-02T20:50:31.242Z,67.45
2023-04-02T20:52:58.673Z,67.08
2023-04-02T20:55:25.289Z,67.65
2023-04-02T20:57:52.051Z,67.74
2023-04-02T21:00:18.846Z,67.57
2023-04-02T21:02:56.004Z,68.07
2023-04-02T21:05:22.625Z,67.62
2023-04-02T21:07:49.179Z,67.94
2023-04-02T21:10:17.227Z,68.14
2023-04-02T21:12:43.850Z,68.53
2023-04-02T21:15:10.500Z,68.09
2023-04-02T21:17:37.109Z,68.32
2023-04-02T21:20:03.889Z,68.77
2023-04-02T21:22:30.470Z,68.35
2023-04-02T21:24:57.373Z,67.83
2023-04-02T21:27:23.961Z,66.67
2023-04-02T21:29:53.147Z,66.48
2023-04-02T21:32:21.601Z,66.19
2023-04-02T21:34:51.287Z,66.07
2023-04-02T21:37:17.834Z,66.20
2023-04-02T21:39:44.356Z,67.18
2023-04-02T21:42:12.610Z,67.30
2023-04-02T21:44:39.236Z,68.00
2023-04-02T21:47:06.018Z,68.92
2023-04-02T21:49:32.706Z,70.06
2023-04-02T21:51:59.174Z,69.17
2023-04-02T21:54:25.670Z,69.24
2023-04-02T21:56:52.300Z,69.19
2023-04-02T21:59:19.344Z,68.70
2023-04-02T22:01:48.869Z,67.81
2023-04-02T22:04:23.580Z,68.17
2023-04-02T22:06:51.246Z,67.74
2023-04-02T22:09:26.716Z,68.29
2023-04-02T22:11:55.946Z,68.62
2023-04-02T22:14:22.895Z,67.65
2023-04-02T22:16:49.850Z,67.94
2023-04-02T22:19:16.636Z,67.62
2023-04-02T22:21:43.621Z,68.62
2023-04-02T22:24:14.198Z,68.54
2023-04-02T22:26:41.034Z,68.18
2023-04-02T22:29:10.805Z,68.33
2023-04-02T22:31:37.374Z,68.74
2023-04-02T22:34:04.840Z,68.34
2023-04-02T22:36:33.583Z,68.87
2023-04-02T22:39:01.056Z,68.71
2023-04-02T22:41:28.970Z,70.13
2023-04-02T22:43:56.505Z,70.81
2023-04-02T22:46:26.816Z,72.87
2023-04-02T22:48:53.762Z,73.22
2023-04-02T22:51:21.868Z,73.90
2023-04-02T22:53:49.013Z,73.65
2023-04-02T22:56:18.542Z,72.50
2023-04-02T22:58:45.380Z,71.69
2023-04-02T23:01:18.869Z,71.69
2023-04-02T23:03:45.442Z,71.89
2023-04-02T23:06:14.377Z,70.88
2023-04-02T23:08:41.546Z,70.79
2023-04-02T23:11:12.752Z,71.41
2023-04-02T23:13:40.553Z,70.89
2023-04-02T23:16:10.258Z,70.53
2023-04-02T23:18:38.356Z,70.17
2023-04-02T23:21:05.981Z,70.01
2023-04-02T23:23:35.847Z,69.56
2023-04-02T23:26:03.586Z,69.06
2023-04-02T23:28:30.238Z,69.17
2023-04-02T23:30:56.705Z,68.80
2023-04-02T23:33:23.187Z,67.95
2023-04-02T23:35:49.903Z,68.70
2023-04-02T23:38:16.415Z,69.81
2023-04-02T23:40:42.888Z,68.48
2023-04-02T23:43:09.436Z,68.01
2023-04-02T23:45:35.918Z,68.87
2023-04-02T23:48:02.448Z,70.14
2023-04-02T23:50:29.100Z,70.84
2023-04-02T23:52:55.749Z,71.34
2023-04-02T23:55:22.252Z,72.40
2023-04-02T23:57:48.722Z,72.80
